Nogalus, Texas
Current Conditions -  °F | °C
As of 9:53 AM on Friday 19 Dec 2014 (Local Time) from KLFK Reporting Station
Light Rain Light Rain  
Wind Chill: 52°   Ceiling: 700
Heat Index: 52°   Visibility: 7mi
Dew Point: 48°   Wind: 9mph
Humidity: 86%   Direction: 10°N
Pressure: 30.17"   Gusts: NA
Location:  31.0585°N, 95.0561°W
Report Text: KLFK 191553Z AUTO 01008KT 7SM -RA OVC007 11/09 A3017 RMK AO2 CIG 006V011 SLP215 P0008 T01110089
Loading
Personal Weather Stations






























Interactive Weather Map New forecast layout! Learn more

10-Day Weather Forecast

Advertisements
Track Severe Weather on mobile